Aponivi — WDD3478 — position and weather

sailwx.info

Track history (hours):
 
Tides and Currents Weather Stations Pressure Air Temp Water Temp Dewpoint Dewpoint Depression Visibility Wind Speed Wind Dir Waves Ship Positions

Aponivi

Owner: Veisz, Howard S, Rye,, NY. More information available from US FCC via Universal Licensing System and Coast Guard Vessel Documentation Center.

Last reported at 2017-Oct-02 14:12 UTC. Time now 2017-Nov-21 19:27 UTC.
Position N 39°33' W 075°41'.
Warning: this ship's position is 50 days out of date.

Length 16 m.

Type: Sailing vessel. MMSI: 367131920.

Date/timePositionNaut miles runAvg speedWind from/ knotsBaromVisibWave heightAir tempDewpointWater temp
2017-Oct-02 14:12N 39°33' W 075°41'1 6.4
2017-Oct-02 14:00N 39°33' W 075°40'3 5.9
2017-Oct-02 13:30N 39°33' W 075°36'2 3.4
2017-Oct-02 12:59N 39°34' W 075°34'0 0.0
2017-Oct-02 12:29N 39°34' W 075°34'0 0.0
2017-Oct-02 11:59N 39°34' W 075°34'0 0.0
2017-Oct-02 11:29N 39°34' W 075°34'0 0.0
2017-Oct-02 10:56N 39°34' W 075°34'1 1.7
2017-Oct-02 10:29N 39°34' W 075°33'0 0.4
2017-Oct-02 10:00N 39°34' W 075°33'0 0.8
2017-Oct-02 09:30N 39°34' W 075°33'0 0.2
2017-Oct-02 09:00N 39°35' W 075°33'1 1.0
2017-Oct-02 08:30N 39°34' W 075°33'1 1.9
2017-Oct-02 08:00N 39°33' W 075°32'2 3.6
2017-Oct-02 07:30N 39°31' W 075°33'2 3.5
2017-Oct-02 07:00N 39°30' W 075°34'  
Track history (hours):
 
Tides and Currents Weather Stations Pressure Air Temp Water Temp Dewpoint Dewpoint Depression Visibility Wind Speed Wind Dir Waves Ship Positions

Aponivi

Owner: Veisz, Howard S, Rye,, NY. More information available from US FCC via Universal Licensing System and Coast Guard Vessel Documentation Center.

Last reported at 2017-Oct-02 14:12 UTC. Time now 2017-Nov-21 19:27 UTC.
Position N 39°33' W 075°41'.
Warning: this ship's position is 50 days out of date.

Length 16 m.

Type: Sailing vessel. MMSI: 367131920.

Date/timePositionNaut miles runAvg speedWind from/ knotsBaromVisibWave heightAir tempDewpointWater temp
2017-Oct-02 14:12N 39°33' W 075°41'1 6.4
2017-Oct-02 14:00N 39°33' W 075°40'3 5.9
2017-Oct-02 13:30N 39°33' W 075°36'2 3.4
2017-Oct-02 12:59N 39°34' W 075°34'0 0.0
2017-Oct-02 12:29N 39°34' W 075°34'0 0.0
2017-Oct-02 11:59N 39°34' W 075°34'0 0.0
2017-Oct-02 11:29N 39°34' W 075°34'0 0.0
2017-Oct-02 10:56N 39°34' W 075°34'1 1.7
2017-Oct-02 10:29N 39°34' W 075°33'0 0.4
2017-Oct-02 10:00N 39°34' W 075°33'0 0.8
2017-Oct-02 09:30N 39°34' W 075°33'0 0.2
2017-Oct-02 09:00N 39°35' W 075°33'1 1.0
2017-Oct-02 08:30N 39°34' W 075°33'1 1.9
2017-Oct-02 08:00N 39°33' W 075°32'2 3.6
2017-Oct-02 07:30N 39°31' W 075°33'2 3.5
2017-Oct-02 07:00N 39°30' W 075°34'  

Dump ship's entire track history